Time;durP1;ratioP1;P1;durP2;ratioP2;P2;SDS_P1;SDS_P2;PMS_P1;PMS_P2;Temp;Humidity;BMP_temperature;BMP_pressure;BME280_temperature;BME280_humidity;BME280_pressure;Samples;Min_cycle;Max_cycle;Signal;HPM_P1;HPM_P2
2022/10/03 00:01:37;;;;;;;;;;;13.90;99.90;;;;;;5026688;28;19917;-78
2022/10/03 00:04:08;;;;;;;;;;;13.80;99.90;;;;;;5027608;28;19913;-78
2022/10/03 00:06:52;;;;;;;;;;;13.80;99.90;;;;;;5022406;28;19957;-78
2022/10/03 00:09:26;;;;;;;;;;;13.80;99.90;;;;;;5027204;28;19984;-78
2022/10/03 00:12:09;;;;;;;;;;;13.80;99.90;;;;;;5028121;28;19920;-78
2022/10/03 00:14:57;;;;;;;;;;;13.80;99.90;;;;;;5023063;28;19949;-78
2022/10/03 00:17:23;;;;;;;;;;;13.80;99.90;;;;;;5026199;28;19991;-78
2022/10/03 00:20:00;;;;;;;;;;;13.70;99.90;;;;;;5026892;28;19952;-79
2022/10/03 00:22:37;;;;;;;;;;;13.70;99.90;;;;;;5026502;28;20390;-79
2022/10/03 00:25:22;;;;;;;;;;;13.70;99.90;;;;;;5026075;28;19925;-79
2022/10/03 00:27:53;;;;;;;;;;;13.60;99.90;;;;;;5027909;28;20720;-78
2022/10/03 00:30:21;;;;;;;;;;;13.60;99.90;;;;;;5024701;28;20010;-79
2022/10/03 00:32:53;;;;;;;;;;;13.50;99.90;;;;;;5027451;28;19987;-78
2022/10/03 00:35:33;;;;;;;;;;;13.40;99.90;;;;;;5027968;28;20457;-78
2022/10/03 00:38:27;;;;;;;;;;;13.30;99.90;;;;;;5038633;28;19921;-78
2022/10/03 00:41:01;;;;;;;;;;;13.20;99.90;;;;;;5025834;28;19914;-78
2022/10/03 00:43:45;;;;;;;;;;;13.20;99.90;;;;;;5027202;28;19944;-78
2022/10/03 00:46:22;;;;;;;;;;;13.20;99.90;;;;;;5022571;28;19921;-79
2022/10/03 00:48:54;;;;;;;;;;;13.20;99.90;;;;;;5021838;28;19925;-78
2022/10/03 00:51:38;;;;;;;;;;;13.10;99.90;;;;;;5025360;28;19921;-78
2022/10/03 00:54:06;;;;;;;;;;;13.10;99.90;;;;;;5025401;28;20008;-78
2022/10/03 00:56:38;;;;;;;;;;;13.10;99.90;;;;;;5025026;28;19988;-78
2022/10/03 00:59:15;;;;;;;;;;;13.10;99.90;;;;;;5022869;28;20571;-78
2022/10/03 01:01:40;;;;;;;;;;;13.20;99.90;;;;;;5022435;28;20354;-78
2022/10/03 01:04:06;;;;;;;;;;;13.20;99.90;;;;;;5022706;28;20012;-79
2022/10/03 01:06:31;;;;;;;;;;;13.20;99.90;;;;;;5021719;28;20396;-78
2022/10/03 01:09:23;;;;;;;;;;;13.10;99.90;;;;;;5025978;28;19917;-79
2022/10/03 01:12:07;;;;;;;;;;;13.20;99.90;;;;;;5018809;28;19921;-78
2022/10/03 01:14:51;;;;;;;;;;;13.20;99.90;;;;;;5023663;28;19917;-78
2022/10/03 01:17:36;;;;;;;;;;;13.10;99.90;;;;;;5022536;28;19975;-79
2022/10/03 01:20:05;;;;;;;;;;;13.30;99.90;;;;;;5025892;28;21325;-78
2022/10/03 01:22:49;;;;;;;;;;;13.30;99.90;;;;;;5025840;28;19921;-79
2022/10/03 01:25:38;;;;;;;;;;;13.30;99.90;;;;;;5026253;28;19925;-79
2022/10/03 01:31:04;;;;;;;;;;;13.30;99.90;;;;;;5025985;28;19924;-79
2022/10/03 01:33:36;;;;;;;;;;;13.30;99.90;;;;;;5024449;28;19917;-78
2022/10/03 01:36:08;;;;;;;;;;;13.30;99.90;;;;;;5024496;28;19970;-78
2022/10/03 01:38:34;;;;;;;;;;;13.30;99.90;;;;;;5025013;28;19917;-78
2022/10/03 01:41:23;;;;;;;;;;;13.30;99.90;;;;;;5024856;28;19923;-78
2022/10/03 01:43:59;;;;;;;;;;;13.30;99.90;;;;;;5005538;28;19917;-78
2022/10/03 01:46:32;;;;;;;;;;;13.30;99.90;;;;;;5026119;28;19928;-78
2022/10/03 01:49:00;;;;;;;;;;;13.30;99.90;;;;;;5040119;28;20515;-77
2022/10/03 01:51:28;;;;;;;;;;;13.30;99.90;;;;;;5025034;28;20461;-78
2022/10/03 01:54:28;;;;;;;;;;;13.30;99.90;;;;;;5025015;28;20410;-78
2022/10/03 01:56:57;;;;;;;;;;;13.30;99.90;;;;;;5013234;28;19924;-78
2022/10/03 01:59:48;;;;;;;;;;;13.30;99.90;;;;;;5022958;28;19918;-78
2022/10/03 02:02:16;;;;;;;;;;;13.30;99.90;;;;;;5008683;28;20026;-78
2022/10/03 02:05:11;;;;;;;;;;;13.30;99.90;;;;;;5018994;28;19957;-78
2022/10/03 02:07:40;;;;;;;;;;;13.30;99.90;;;;;;5018428;28;19924;-78
2022/10/03 02:10:11;;;;;;;;;;;13.30;99.90;;;;;;5029346;28;21214;-78
2022/10/03 02:12:47;;;;;;;;;;;13.30;99.90;;;;;;5028000;28;19917;-79
2022/10/03 02:15:28;;;;;;;;;;;13.30;99.90;;;;;;5029956;28;19969;-78
2022/10/03 02:18:00;;;;;;;;;;;13.30;99.90;;;;;;5027649;28;20044;-78
2022/10/03 02:20:44;;;;;;;;;;;13.30;99.90;;;;;;5022289;28;20004;-78
2022/10/03 02:23:37;;;;;;;;;;;13.30;99.90;;;;;;5027935;28;19957;-77
2022/10/03 02:26:18;;;;;;;;;;;13.30;99.90;;;;;;5027349;28;20701;-78
2022/10/03 02:28:55;;;;;;;;;;;13.30;99.90;;;;;;5028933;28;20386;-78
2022/10/03 02:31:33;;;;;;;;;;;13.30;99.90;;;;;;5029393;28;20386;-78
2022/10/03 02:34:18;;;;;;;;;;;13.30;99.90;;;;;;5028328;28;20678;-78
2022/10/03 02:36:53;;;;;;;;;;;13.30;99.90;;;;;;5026256;28;19924;-77
2022/10/03 02:39:37;;;;;;;;;;;13.40;99.90;;;;;;5028898;28;19970;-77
2022/10/03 02:42:06;;;;;;;;;;;13.50;99.90;;;;;;5027631;28;20483;-77
2022/10/03 02:44:38;;;;;;;;;;;13.40;99.90;;;;;;5028123;28;19960;-78
2022/10/03 02:47:04;;;;;;;;;;;13.40;99.90;;;;;;5020341;28;19925;-77
2022/10/03 02:49:48;;;;;;;;;;;13.40;99.90;;;;;;5028104;28;19928;-78
2022/10/03 02:52:32;;;;;;;;;;;13.30;99.90;;;;;;5017595;28;19917;-77
2022/10/03 02:55:01;;;;;;;;;;;13.30;99.90;;;;;;5026587;28;20730;-77
2022/10/03 02:57:26;;;;;;;;;;;13.30;99.90;;;;;;5017948;28;20534;-78
2022/10/03 03:00:09;;;;;;;;;;;13.30;99.90;;;;;;5025677;28;19928;-78
2022/10/03 03:02:54;;;;;;;;;;;13.30;99.90;;;;;;5017769;28;19917;-77
2022/10/03 03:05:23;;;;;;;;;;;13.10;99.90;;;;;;5024465;28;20349;-79
2022/10/03 03:07:58;;;;;;;;;;;13.00;99.90;;;;;;5028105;28;19924;-78
2022/10/03 03:10:43;;;;;;;;;;;13.00;99.90;;;;;;5026491;28;19917;-78
2022/10/03 03:13:15;;;;;;;;;;;12.90;99.90;;;;;;5023063;28;19913;-79
2022/10/03 03:15:58;;;;;;;;;;;13.00;99.90;;;;;;5026869;28;19917;-78
2022/10/03 03:18:41;;;;;;;;;;;13.00;99.90;;;;;;5021086;28;19925;-79
2022/10/03 03:21:25;;;;;;;;;;;12.90;99.90;;;;;;5019834;28;19925;-79
2022/10/03 03:24:05;;;;;;;;;;;12.80;99.90;;;;;;5028172;28;19925;-78
2022/10/03 03:26:34;;;;;;;;;;;12.80;99.90;;;;;;5020049;28;19925;-79
2022/10/03 03:29:06;;;;;;;;;;;12.80;99.90;;;;;;5023024;28;19952;-78
2022/10/03 03:31:50;;;;;;;;;;;12.80;99.90;;;;;;5026595;28;20344;-78
2022/10/03 03:34:31;;;;;;;;;;;12.80;99.90;;;;;;5027117;28;19925;-78
2022/10/03 03:37:03;;;;;;;;;;;12.70;99.90;;;;;;5019048;28;19972;-78
2022/10/03 03:39:48;;;;;;;;;;;12.70;99.90;;;;;;5020221;28;19921;-78
2022/10/03 03:42:17;;;;;;;;;;;12.70;99.90;;;;;;5027934;28;19982;-78
2022/10/03 03:44:45;;;;;;;;;;;12.80;99.90;;;;;;5028114;28;19917;-77
2022/10/03 03:47:35;;;;;;;;;;;12.90;99.90;;;;;;5028127;28;19948;-78
2022/10/03 03:50:19;;;;;;;;;;;13.00;99.90;;;;;;5009415;28;19917;-79
2022/10/03 03:52:48;;;;;;;;;;;13.00;99.90;;;;;;5024456;28;20668;-78
2022/10/03 03:55:26;;;;;;;;;;;13.00;99.90;;;;;;5021885;28;19917;-79
2022/10/03 03:58:11;;;;;;;;;;;12.90;99.90;;;;;;5025485;28;19924;-79
2022/10/03 04:00:37;;;;;;;;;;;12.70;99.90;;;;;;5026941;28;19924;-79
2022/10/03 04:03:11;;;;;;;;;;;12.70;99.90;;;;;;5025977;28;19917;-79
2022/10/03 04:05:55;;;;;;;;;;;12.60;99.90;;;;;;5028017;28;19960;-79
2022/10/03 04:08:27;;;;;;;;;;;12.60;99.90;;;;;;5027611;28;19927;-79
2022/10/03 04:11:11;;;;;;;;;;;12.60;99.90;;;;;;5024994;28;20375;-79
2022/10/03 04:13:52;;;;;;;;;;;12.50;99.90;;;;;;5028140;28;19924;-79
2022/10/03 04:19:48;;;;;;;;;;;12.50;99.90;;;;;;5026412;28;19951;-79
2022/10/03 04:22:14;;;;;;;;;;;12.50;99.90;;;;;;5020463;28;19924;-79
2022/10/03 04:24:48;;;;;;;;;;;12.50;99.90;;;;;;5026471;28;19921;-79
2022/10/03 04:27:17;;;;;;;;;;;12.50;99.90;;;;;;5026434;28;19934;-79
2022/10/03 04:29:49;;;;;;;;;;;12.40;99.90;;;;;;5027518;28;19917;-78
2022/10/03 04:32:25;;;;;;;;;;;12.30;99.90;;;;;;5025408;28;19917;-78
2022/10/03 04:34:50;;;;;;;;;;;12.30;99.90;;;;;;5026805;28;20023;-79
2022/10/03 04:37:16;;;;;;;;;;;12.30;99.90;;;;;;5023993;28;19976;-78
2022/10/03 04:39:42;;;;;;;;;;;12.20;99.90;;;;;;5027114;28;19921;-77
2022/10/03 04:42:13;;;;;;;;;;;12.30;99.90;;;;;;5026104;28;20198;-77
2022/10/03 04:44:51;;;;;;;;;;;12.30;99.90;;;;;;5025798;28;20489;-77
2022/10/03 04:47:25;;;;;;;;;;;12.30;99.90;;;;;;5027191;28;19920;-80
2022/10/03 04:49:59;;;;;;;;;;;12.30;99.90;;;;;;5020209;28;19917;-77
2022/10/03 04:52:43;;;;;;;;;;;12.20;99.90;;;;;;5022317;28;20005;-81
2022/10/03 04:55:28;;;;;;;;;;;12.20;99.90;;;;;;5041661;28;19917;-79
2022/10/03 04:58:02;;;;;;;;;;;12.20;99.90;;;;;;5027846;28;20355;-80
2022/10/03 05:00:32;;;;;;;;;;;12.20;99.90;;;;;;5020926;28;20449;-81
2022/10/03 05:03:13;;;;;;;;;;;12.20;99.90;;;;;;5024476;28;19988;-81
2022/10/03 05:05:56;;;;;;;;;;;12.10;99.90;;;;;;5024859;28;19921;-81
2022/10/03 05:08:48;;;;;;;;;;;12.20;99.90;;;;;;5023507;28;19957;-80
2022/10/03 05:11:17;;;;;;;;;;;12.10;99.90;;;;;;5024690;28;19913;-82
2022/10/03 05:13:43;;;;;;;;;;;12.10;99.90;;;;;;5025604;28;19917;-81
2022/10/03 05:16:09;;;;;;;;;;;12.00;99.90;;;;;;5023554;28;19940;-81
2022/10/03 05:18:35;;;;;;;;;;;12.00;99.90;;;;;;5018900;28;19983;-79
2022/10/03 05:21:07;;;;;;;;;;;12.00;99.90;;;;;;5023826;28;20587;-80
2022/10/03 05:23:40;;;;;;;;;;;12.00;99.90;;;;;;5025918;28;19968;-80
2022/10/03 05:26:13;;;;;;;;;;;12.00;99.90;;;;;;5026072;28;19935;-80
2022/10/03 05:28:39;;;;;;;;;;;12.00;99.90;;;;;;5024696;28;19917;-80
2022/10/03 05:31:25;;;;;;;;;;;12.00;99.90;;;;;;5023213;28;19917;-79
2022/10/03 05:34:11;;;;;;;;;;;11.90;99.90;;;;;;5017478;28;19924;-79
2022/10/03 05:36:42;;;;;;;;;;;11.90;99.90;;;;;;5025396;28;19917;-78
2022/10/03 05:39:27;;;;;;;;;;;11.90;99.90;;;;;;5023279;28;19917;-79
2022/10/03 05:42:04;;;;;;;;;;;11.90;99.90;;;;;;5024631;28;19917;-79
2022/10/03 05:44:40;;;;;;;;;;;11.90;99.90;;;;;;5021927;28;19933;-79
2022/10/03 05:47:43;;;;;;;;;;;11.90;99.90;;;;;;5020891;28;19921;-79
2022/10/03 05:49:57;;;;;;;;;;;11.90;99.90;;;;;;5016570;28;19921;-81
2022/10/03 05:52:43;;;;;;;;;;;12.00;99.90;;;;;;5024903;28;19928;-81
2022/10/03 05:55:08;;;;;;;;;;;12.00;99.90;;;;;;5022614;28;19917;-78
2022/10/03 05:57:53;;;;;;;;;;;12.00;99.90;;;;;;5026131;28;20679;-78
2022/10/03 06:00:37;;;;;;;;;;;12.00;99.90;;;;;;5023732;28;20708;-78
2022/10/03 06:03:02;;;;;;;;;;;12.00;99.90;;;;;;5022796;28;20071;-78
2022/10/03 06:05:30;;;;;;;;;;;12.10;99.90;;;;;;5025538;28;19996;-78
2022/10/03 06:08:11;;;;;;;;;;;12.20;99.90;;;;;;5027216;28;19913;-79
2022/10/03 06:10:48;;;;;;;;;;;12.30;99.90;;;;;;5023503;28;19983;-79
2022/10/03 06:13:18;;;;;;;;;;;12.80;99.90;;;;;;5020486;28;19948;-79
2022/10/03 06:15:43;;;;;;;;;;;13.10;99.90;;;;;;5029118;28;19913;-79
2022/10/03 06:18:15;;;;;;;;;;;13.60;99.90;;;;;;5031211;28;19925;-79
2022/10/03 06:20:59;;;;;;;;;;;13.60;99.90;;;;;;5027175;28;19924;-79
2022/10/03 06:23:55;;;;;;;;;;;13.70;99.90;;;;;;5025444;28;19913;-79
2022/10/03 06:26:39;;;;;;;;;;;13.60;99.90;;;;;;4968352;28;20779;-79
2022/10/03 06:29:07;;;;;;;;;;;13.40;99.90;;;;;;5024749;28;20348;-79
2022/10/03 06:31:51;;;;;;;;;;;13.90;99.90;;;;;;5020538;28;19914;-79
2022/10/03 06:34:25;;;;;;;;;;;13.60;99.90;;;;;;5019003;28;19924;-80
2022/10/03 06:37:07;;;;;;;;;;;14.30;99.90;;;;;;5026461;28;19959;-78
2022/10/03 06:39:39;;;;;;;;;;;14.20;99.90;;;;;;5025534;28;19924;-81
2022/10/03 06:42:08;;;;;;;;;;;14.20;99.90;;;;;;5025583;28;19985;-78
2022/10/03 06:44:39;;;;;;;;;;;13.40;99.90;;;;;;5016411;28;19917;-77
2022/10/03 06:47:05;;;;;;;;;;;12.80;99.90;;;;;;5015582;28;19943;-76
2022/10/03 06:49:31;;;;;;;;;;;13.00;99.90;;;;;;5026425;28;19980;-77
2022/10/03 06:51:56;;;;;;;;;;;14.50;99.90;;;;;;5025744;28;19998;-77
2022/10/03 06:54:30;;;;;;;;;;;14.90;99.90;;;;;;5027882;28;19917;-77
2022/10/03 06:57:14;;;;;;;;;;;13.90;99.90;;;;;;5019356;28;19945;-77
2022/10/03 06:59:58;;;;;;;;;;;15.10;99.90;;;;;;5028050;28;19919;-77
2022/10/03 07:02:53;;;;;;;;;;;15.90;99.90;;;;;;5023048;28;20419;-77
2022/10/03 07:05:19;;;;;;;;;;;16.50;99.90;;;;;;4982810;28;19924;-77
2022/10/03 07:07:51;;;;;;;;;;;16.90;99.90;;;;;;5026270;28;19913;-77
2022/10/03 07:10:34;;;;;;;;;;;17.00;99.90;;;;;;5030366;28;19913;-77
2022/10/03 07:13:19;;;;;;;;;;;17.30;99.90;;;;;;5027337;28;19913;-77
2022/10/03 07:16:06;;;;;;;;;;;17.50;99.90;;;;;;5030206;28;20455;-77
2022/10/03 07:18:41;;;;;;;;;;;17.40;99.90;;;;;;5023406;28;19925;-78
2022/10/03 07:21:25;;;;;;;;;;;17.50;99.90;;;;;;5026324;28;19917;-77
2022/10/03 07:23:51;;;;;;;;;;;17.80;99.90;;;;;;5028566;28;19936;-77
2022/10/03 07:26:25;;;;;;;;;;;17.90;99.90;;;;;;5029503;28;19921;-77
2022/10/03 07:29:09;;;;;;;;;;;18.00;99.90;;;;;;5029820;28;19948;-77
2022/10/03 07:31:38;;;;;;;;;;;17.80;99.90;;;;;;5028509;28;20007;-77
2022/10/03 07:34:03;;;;;;;;;;;18.40;99.90;;;;;;5029979;28;19939;-77
2022/10/03 07:39:51;;;;;;;;;;;19.10;99.90;;;;;;5029555;28;20006;-77
2022/10/03 07:42:26;;;;;;;;;;;19.10;99.90;;;;;;5028075;28;19913;-77
2022/10/03 07:44:51;;;;;;;;;;;19.00;99.90;;;;;;5027533;28;19995;-77
2022/10/03 07:47:45;;;;;;;;;;;18.70;99.90;;;;;;5028834;28;19917;-77
2022/10/03 07:50:10;;;;;;;;;;;19.40;99.90;;;;;;5029091;28;20032;-77
2022/10/03 07:52:42;;;;;;;;;;;18.70;99.90;;;;;;5028550;28;20039;-77
2022/10/03 07:55:20;;;;;;;;;;;18.90;99.90;;;;;;5028713;28;19924;-77
2022/10/03 07:58:04;;;;;;;;;;;19.10;99.90;;;;;;5029250;28;19941;-77
2022/10/03 08:00:49;;;;;;;;;;;19.40;99.90;;;;;;5026690;28;19947;-78
2022/10/03 08:03:33;;;;;;;;;;;19.50;99.90;;;;;;5024106;28;20707;-77
2022/10/03 08:06:05;;;;;;;;;;;19.10;99.90;;;;;;5027658;28;19917;-77
2022/10/03 08:08:33;;;;;;;;;;;19.40;99.90;;;;;;5028769;28;20004;-77
2022/10/03 08:11:05;;;;;;;;;;;19.60;99.90;;;;;;5028428;28;19913;-77
2022/10/03 08:13:49;;;;;;;;;;;20.30;99.90;;;;;;5027280;28;19913;-77
2022/10/03 08:16:41;;;;;;;;;;;20.40;99.90;;;;;;5024173;28;20340;-77
2022/10/03 08:19:07;;;;;;;;;;;20.10;99.90;;;;;;4997130;28;20407;-77
2022/10/03 08:21:44;;;;;;;;;;;20.40;99.90;;;;;;5028451;28;19913;-77
2022/10/03 08:24:13;;;;;;;;;;;20.00;99.90;;;;;;5020786;28;20468;-77
2022/10/03 08:26:57;;;;;;;;;;;19.90;99.90;;;;;;5026567;28;19925;-77
2022/10/03 08:29:41;;;;;;;;;;;19.90;99.90;;;;;;5026537;28;19917;-77
2022/10/03 08:32:25;;;;;;;;;;;20.20;99.90;;;;;;5025707;28;19919;-77
2022/10/03 08:35:10;;;;;;;;;;;20.30;99.90;;;;;;5027418;28;19913;-77
2022/10/03 08:37:35;;;;;;;;;;;19.90;99.90;;;;;;5028267;28;19920;-78
2022/10/03 08:40:08;;;;;;;;;;;20.50;99.90;;;;;;5027184;28;19917;-77
2022/10/03 08:42:40;;;;;;;;;;;20.90;99.90;;;;;;5028177;28;19913;-77
2022/10/03 08:45:24;;;;;;;;;;;21.00;99.90;;;;;;5027996;28;19913;-77
2022/10/03 08:48:09;;;;;;;;;;;20.50;99.90;;;;;;5027523;28;20362;-78
2022/10/03 08:50:42;;;;;;;;;;;20.60;99.50;;;;;;5027355;28;19983;-78
2022/10/03 08:53:37;;;;;;;;;;;20.70;99.90;;;;;;5024053;28;19919;-78
2022/10/03 08:56:09;;;;;;;;;;;20.70;99.90;;;;;;5005594;28;20383;-77
2022/10/03 08:58:49;;;;;;;;;;;20.30;98.80;;;;;;5025514;28;19913;-77
2022/10/03 09:01:18;;;;;;;;;;;20.70;99.70;;;;;;5021629;28;19940;-77
2022/10/03 09:03:43;;;;;;;;;;;20.70;98.50;;;;;;5027630;28;20008;-77
2022/10/03 09:06:19;;;;;;;;;;;21.20;98.10;;;;;;5025850;28;20711;-77
2022/10/03 09:08:45;;;;;;;;;;;21.30;97.80;;;;;;5027464;28;20724;-77
2022/10/03 09:11:25;;;;;;;;;;;21.10;98.30;;;;;;5023705;28;19913;-77
2022/10/03 09:13:54;;;;;;;;;;;20.70;98.70;;;;;;5025676;28;20391;-77
2022/10/03 09:16:31;;;;;;;;;;;21.00;97.30;;;;;;5025445;28;20706;-77
2022/10/03 09:19:16;;;;;;;;;;;21.20;97.50;;;;;;5017336;28;19920;-77
2022/10/03 09:21:56;;;;;;;;;;;21.40;96.50;;;;;;5027418;28;20319;-78
2022/10/03 09:24:40;;;;;;;;;;;21.60;96.50;;;;;;5020829;28;19917;-78
2022/10/03 09:27:19;;;;;;;;;;;21.30;96.90;;;;;;5025367;28;19964;-77
2022/10/03 09:29:47;;;;;;;;;;;21.40;95.90;;;;;;5024910;28;19913;-77
2022/10/03 09:32:32;;;;;;;;;;;20.20;96.60;;;;;;5027447;28;19941;-77
2022/10/03 09:35:16;;;;;;;;;;;20.50;98.30;;;;;;5028033;28;19913;-77
2022/10/03 09:37:47;;;;;;;;;;;20.40;98.30;;;;;;5021636;28;19991;-77
2022/10/03 09:40:12;;;;;;;;;;;20.90;98.70;;;;;;5023201;28;19952;-77
2022/10/03 09:42:57;;;;;;;;;;;20.30;97.90;;;;;;5026958;28;20006;-78
2022/10/03 09:45:38;;;;;;;;;;;20.70;97.90;;;;;;5026767;28;19928;-77
2022/10/03 09:48:23;;;;;;;;;;;21.30;98.80;;;;;;5025426;28;19925;-77
2022/10/03 09:50:57;;;;;;;;;;;20.50;99.90;;;;;;5020587;28;19913;-78
2022/10/03 09:53:46;;;;;;;;;;;20.30;98.70;;;;;;5024220;28;19957;-78
2022/10/03 09:56:24;;;;;;;;;;;19.80;97.40;;;;;;5026012;28;19913;-77
2022/10/03 09:58:53;;;;;;;;;;;20.00;99.90;;;;;;5027125;28;19917;-77
2022/10/03 10:01:28;;;;;;;;;;;20.30;98.00;;;;;;5026204;28;19913;-78
2022/10/03 10:03:56;;;;;;;;;;;20.60;97.60;;;;;;5027092;28;19952;-78
2022/10/03 10:06:41;;;;;;;;;;;20.50;97.20;;;;;;5020035;28;19921;-78
2022/10/03 10:09:18;;;;;;;;;;;20.00;97.30;;;;;;5025764;28;20000;-78
2022/10/03 10:12:02;;;;;;;;;;;20.00;99.00;;;;;;5025049;28;20681;-77
2022/10/03 10:14:28;;;;;;;;;;;20.00;99.00;;;;;;5026667;28;19913;-77
2022/10/03 10:17:18;;;;;;;;;;;20.00;98.60;;;;;;5025796;28;19923;-78
2022/10/03 10:19:50;;;;;;;;;;;19.70;98.80;;;;;;5021802;28;19921;-77
2022/10/03 10:22:19;;;;;;;;;;;19.60;99.70;;;;;;5026803;28;20021;-77
2022/10/03 10:24:45;;;;;;;;;;;19.80;98.40;;;;;;5026283;28;19917;-78
2022/10/03 10:27:17;;;;;;;;;;;20.10;98.80;;;;;;5026464;28;19921;-78
2022/10/03 10:29:45;;;;;;;;;;;19.80;98.60;;;;;;5026777;28;19913;-78
2022/10/03 10:32:16;;;;;;;;;;;19.90;99.90;;;;;;5030462;28;20637;-78
2022/10/03 10:34:48;;;;;;;;;;;19.70;98.80;;;;;;5028846;28;19913;-78
2022/10/03 10:37:15;;;;;;;;;;;19.90;99.10;;;;;;5021213;28;19962;-77
2022/10/03 10:39:41;;;;;;;;;;;20.00;98.90;;;;;;5028921;28;20659;-78
2022/10/03 10:42:36;;;;;;;;;;;19.90;99.10;;;;;;5027258;28;20044;-76
2022/10/03 10:45:02;;;;;;;;;;;19.70;98.60;;;;;;5027407;28;19913;-77
2022/10/03 10:47:42;;;;;;;;;;;19.60;99.30;;;;;;5030244;28;19920;-78
2022/10/03 10:50:23;;;;;;;;;;;20.00;99.10;;;;;;5028383;28;19913;-78
2022/10/03 10:53:08;;;;;;;;;;;19.70;98.70;;;;;;5030303;28;19920;-78
2022/10/03 10:55:52;;;;;;;;;;;19.70;99.30;;;;;;5029182;28;19940;-78
2022/10/03 10:58:36;;;;;;;;;;;19.70;98.20;;;;;;5028306;28;19920;-77
2022/10/03 11:01:20;;;;;;;;;;;19.70;99.90;;;;;;5027425;28;19998;-77
2022/10/03 11:04:05;;;;;;;;;;;19.80;97.90;;;;;;5027700;28;20016;-77
2022/10/03 11:06:43;;;;;;;;;;;19.90;97.40;;;;;;5026360;28;19913;-77
2022/10/03 11:09:27;;;;;;;;;;;19.80;98.50;;;;;;5023109;28;19951;-77
2022/10/03 11:12:16;;;;;;;;;;;19.80;99.40;;;;;;5028542;28;19917;-77
2022/10/03 11:15:00;;;;;;;;;;;19.80;97.70;;;;;;5021054;28;19913;-78
2022/10/03 11:17:38;;;;;;;;;;;19.90;98.50;;;;;;5018362;28;19925;-78
2022/10/03 11:20:09;;;;;;;;;;;19.80;97.10;;;;;;5026403;28;19917;-78
2022/10/03 11:23:10;;;;;;;;;;;19.70;96.60;;;;;;5030145;28;20022;-77
2022/10/03 11:25:42;;;;;;;;;;;19.70;97.40;;;;;;4932317;29;19929;-78
2022/10/03 11:28:27;;;;;;;;;;;19.40;96.60;;;;;;5015655;28;19913;-77
2022/10/03 11:30:56;;;;;;;;;;;19.50;96.30;;;;;;5022132;28;19917;-78
2022/10/03 11:33:22;;;;;;;;;;;19.70;97.30;;;;;;5029784;28;19944;-77
2022/10/03 11:36:06;;;;;;;;;;;19.80;98.40;;;;;;5030379;28;19913;-78
2022/10/03 11:38:45;;;;;;;;;;;19.70;98.30;;;;;;5026801;28;19920;-77
2022/10/03 11:41:28;;;;;;;;;;;19.50;98.00;;;;;;5028019;28;19917;-77
2022/10/03 11:44:13;;;;;;;;;;;19.60;98.60;;;;;;5021171;28;20664;-78
2022/10/03 11:46:57;;;;;;;;;;;19.50;97.00;;;;;;5040653;28;19917;-78
2022/10/03 11:49:41;;;;;;;;;;;19.50;98.40;;;;;;5028824;28;19913;-78
2022/10/03 11:52:07;;;;;;;;;;;19.70;96.90;;;;;;5027596;28;20319;-78
2022/10/03 11:54:36;;;;;;;;;;;19.70;96.60;;;;;;5023880;28;19956;-78
2022/10/03 11:57:12;;;;;;;;;;;19.60;96.50;;;;;;5026473;28;20003;-78
2022/10/03 11:59:57;;;;;;;;;;;19.70;96.30;;;;;;5023681;28;19924;-77
2022/10/03 12:02:27;;;;;;;;;;;19.60;95.60;;;;;;5026505;28;19937;-77
2022/10/03 12:04:55;;;;;;;;;;;19.60;97.30;;;;;;5027339;28;19913;-78
2022/10/03 12:10:45;;;;;;;;;;;19.60;96.80;;;;;;4966225;28;19977;-77
2022/10/03 12:13:15;;;;;;;;;;;19.60;97.00;;;;;;5025470;28;19955;-78
2022/10/03 12:15:52;;;;;;;;;;;19.50;98.00;;;;;;5028927;28;20015;-78
2022/10/03 12:18:24;;;;;;;;;;;19.60;97.60;;;;;;5020651;28;19956;-78
2022/10/03 12:21:08;;;;;;;;;;;19.60;99.80;;;;;;5020273;28;19912;-78
2022/10/03 12:23:33;;;;;;;;;;;19.60;98.40;;;;;;5025541;28;19967;-78
2022/10/03 12:26:02;;;;;;;;;;;19.60;97.80;;;;;;5027165;28;19924;-78
2022/10/03 12:28:38;;;;;;;;;;;19.60;98.10;;;;;;5027961;28;19913;-78
2022/10/03 12:31:10;;;;;;;;;;;19.60;97.60;;;;;;5027937;28;19920;-78
2022/10/03 12:33:41;;;;;;;;;;;19.80;99.90;;;;;;5028103;28;19913;-77
2022/10/03 12:36:26;;;;;;;;;;;19.70;98.00;;;;;;5025247;28;19975;-78
2022/10/03 12:39:08;;;;;;;;;;;19.80;99.30;;;;;;5027737;28;19913;-78
2022/10/03 12:41:42;;;;;;;;;;;19.80;98.00;;;;;;5027420;28;19956;-78
2022/10/03 12:44:30;;;;;;;;;;;19.80;98.40;;;;;;5023559;28;20360;-78
2022/10/03 12:47:10;;;;;;;;;;;19.80;98.50;;;;;;5026023;28;19917;-78
2022/10/03 12:49:45;;;;;;;;;;;19.80;98.90;;;;;;5025760;28;19920;-78
2022/10/03 12:52:17;;;;;;;;;;;19.90;99.30;;;;;;5026324;28;19917;-78
2022/10/03 12:55:06;;;;;;;;;;;19.90;98.70;;;;;;5028267;28;19920;-78
2022/10/03 12:57:47;;;;;;;;;;;20.00;98.00;;;;;;5022789;28;19913;-78
2022/10/03 13:00:39;;;;;;;;;;;20.00;98.70;;;;;;5025724;28;19920;-78
2022/10/03 13:03:19;;;;;;;;;;;19.80;97.40;;;;;;4993082;28;19909;-78
2022/10/03 13:06:06;;;;;;;;;;;19.90;98.10;;;;;;5025810;28;19921;-78
2022/10/03 13:08:50;;;;;;;;;;;20.00;98.50;;;;;;5025852;28;19913;-78
2022/10/03 13:11:31;;;;;;;;;;;20.00;98.00;;;;;;5026984;28;19917;-78
2022/10/03 13:14:12;;;;;;;;;;;20.00;98.00;;;;;;5026359;28;20673;-78
2022/10/03 13:16:58;;;;;;;;;;;20.00;95.70;;;;;;5026851;28;19944;-78
2022/10/03 13:19:31;;;;;;;;;;;20.00;96.80;;;;;;4996548;28;19921;-78
2022/10/03 13:22:16;;;;;;;;;;;20.10;95.90;;;;;;5027563;28;19913;-78
2022/10/03 13:25:07;;;;;;;;;;;20.00;97.00;;;;;;5027372;28;20447;-78
2022/10/03 13:27:41;;;;;;;;;;;20.10;96.50;;;;;;5016680;28;20614;-78
2022/10/03 13:30:29;;;;;;;;;;;20.10;94.80;;;;;;5026975;28;19914;-76
2022/10/03 13:32:54;;;;;;;;;;;20.10;95.40;;;;;;5027769;28;19916;-78
2022/10/03 13:38:25;;;;;;;;;;;20.40;96.70;;;;;;5026907;28;19948;-78
2022/10/03 13:40:56;;;;;;;;;;;20.20;95.50;;;;;;5025498;28;20390;-78
2022/10/03 13:43:25;;;;;;;;;;;20.20;96.10;;;;;;5026953;28;19913;-78
2022/10/03 13:45:55;;;;;;;;;;;20.10;95.60;;;;;;5018916;28;20536;-78
2022/10/03 13:48:23;;;;;;;;;;;20.10;95.60;;;;;;5021715;28;20000;-78
2022/10/03 13:51:00;;;;;;;;;;;20.10;95.70;;;;;;5027359;28;19925;-78
2022/10/03 13:53:45;;;;;;;;;;;20.20;95.90;;;;;;5027371;28;19921;-78
2022/10/03 13:56:30;;;;;;;;;;;20.10;95.70;;;;;;5026779;28;19917;-78
2022/10/03 13:59:15;;;;;;;;;;;20.30;95.60;;;;;;5021127;28;19921;-78
2022/10/03 14:01:55;;;;;;;;;;;20.30;97.00;;;;;;5026024;28;20431;-78
2022/10/03 14:04:21;;;;;;;;;;;20.20;95.60;;;;;;5026060;28;19999;-78
2022/10/03 14:06:56;;;;;;;;;;;20.30;95.80;;;;;;5029216;28;19921;-78
2022/10/03 14:09:25;;;;;;;;;;;20.30;95.30;;;;;;5023186;28;19918;-78
2022/10/03 14:11:50;;;;;;;;;;;20.30;95.80;;;;;;5029348;28;19930;-78
2022/10/03 14:14:23;;;;;;;;;;;20.30;95.30;;;;;;5031518;28;20379;-78
2022/10/03 14:17:00;;;;;;;;;;;20.40;96.70;;;;;;5027725;28;19920;-78
2022/10/03 14:19:42;;;;;;;;;;;20.30;95.10;;;;;;5024304;28;20387;-78
2022/10/03 14:22:17;;;;;;;;;;;20.30;94.30;;;;;;5027526;28;19920;-78
2022/10/03 14:24:45;;;;;;;;;;;20.30;95.30;;;;;;5028581;28;19913;-78
2022/10/03 14:27:30;;;;;;;;;;;20.30;94.40;;;;;;5026389;28;20352;-77
2022/10/03 14:30:05;;;;;;;;;;;20.40;95.00;;;;;;5026577;28;19921;-78
2022/10/03 14:32:31;;;;;;;;;;;20.40;94.70;;;;;;5024235;28;19918;-77
2022/10/03 14:35:36;;;;;;;;;;;20.40;95.80;;;;;;5020597;28;20383;-78
2022/10/03 14:38:14;;;;;;;;;;;20.40;94.30;;;;;;4946035;29;20384;-78
2022/10/03 14:40:50;;;;;;;;;;;20.30;94.80;;;;;;5009385;28;19948;-78
2022/10/03 14:43:22;;;;;;;;;;;20.10;94.60;;;;;;5024955;28;20427;-77
2022/10/03 14:45:49;;;;;;;;;;;20.10;94.70;;;;;;5019652;28;19921;-77
2022/10/03 14:48:19;;;;;;;;;;;20.10;94.30;;;;;;5022337;28;19963;-79
2022/10/03 14:50:48;;;;;;;;;;;20.10;94.40;;;;;;5012551;28;19936;-77
2022/10/03 14:53:19;;;;;;;;;;;20.10;94.70;;;;;;5012973;28;19940;-78
2022/10/03 14:55:52;;;;;;;;;;;20.10;94.90;;;;;;5015251;28;20651;-78
2022/10/03 14:58:20;;;;;;;;;;;20.00;94.90;;;;;;5026963;28;20466;-78
2022/10/03 15:00:47;;;;;;;;;;;20.20;94.30;;;;;;5024532;28;19928;-78
2022/10/03 15:03:16;;;;;;;;;;;20.20;95.40;;;;;;5015342;28;19913;-78
2022/10/03 15:06:08;;;;;;;;;;;20.20;95.00;;;;;;5019731;28;19943;-78
2022/10/03 15:08:39;;;;;;;;;;;20.30;95.40;;;;;;4997058;28;19916;-83
2022/10/03 15:11:06;;;;;;;;;;;20.40;95.10;;;;;;5030774;28;19918;-82
2022/10/03 15:13:35;;;;;;;;;;;20.40;94.80;;;;;;5010185;28;19913;-80
2022/10/03 15:16:01;;;;;;;;;;;20.30;94.80;;;;;;5013981;28;20528;-82
2022/10/03 15:18:27;;;;;;;;;;;20.10;95.50;;;;;;5013538;28;19922;-80
2022/10/03 15:20:56;;;;;;;;;;;20.00;95.90;;;;;;5015967;28;20364;-81
2022/10/03 15:23:24;;;;;;;;;;;19.90;96.80;;;;;;5011409;28;19913;-81
2022/10/03 15:25:52;;;;;;;;;;;19.90;97.80;;;;;;5011113;28;19925;-81